< < Back
Terminal Aerodrome Forecast


Current Version              Previous Versions:   1  2  3  4  5  6  7  8  9  

Terminal Aerodrome Forecast

885
FTUS44 KOHX 221728
TAFBNA
TAF
KBNA 221728Z 2218/2318 VRB05KT P6SM SCT050 BKN250
     FM230100 VRB03KT P6SM SCT250
     FM231000 00000KT 4SM BR SCT250
     FM231400 VRB03KT P6SM SCT050 SCT250=



Latest METAR

590
SAUS70 KWBC 230900 RRJ
MTRBNA
METAR KBNA 230853Z 00000KT 10SM FEW040 BKN250 25/22 A3000 RMK AO2 SLP152
T02500222 56003


USA.gov is the U.S. government's official web portal to all federal, state and local government web resources and services.